sensor_id;sensor_type;location;lat;lon;timestamp;P1;durP1;ratioP1;P2;durP2;ratioP2
66603;SDS011;53460;39.612;8.822;2022-07-23T00:01:17;4.72;;;3.38;;
66603;SDS011;53460;39.612;8.822;2022-07-23T00:03:43;8.00;;;4.07;;
66603;SDS011;53460;39.612;8.822;2022-07-23T00:06:08;7.53;;;3.30;;
66603;SDS011;53460;39.612;8.822;2022-07-23T00:08:34;3.47;;;3.10;;
66603;SDS011;53460;39.612;8.822;2022-07-23T00:10:59;4.60;;;3.53;;
66603;SDS011;53460;39.612;8.822;2022-07-23T00:13:26;6.00;;;3.25;;
66603;SDS011;53460;39.612;8.822;2022-07-23T00:15:52;5.88;;;2.95;;
66603;SDS011;53460;39.612;8.822;2022-07-23T00:18:18;6.07;;;3.50;;
66603;SDS011;53460;39.612;8.822;2022-07-23T00:20:44;4.35;;;3.22;;
66603;SDS011;53460;39.612;8.822;2022-07-23T00:23:10;5.95;;;3.10;;
66603;SDS011;53460;39.612;8.822;2022-07-23T00:25:35;5.90;;;3.60;;
66603;SDS011;53460;39.612;8.822;2022-07-23T00:28:01;4.35;;;3.30;;
66603;SDS011;53460;39.612;8.822;2022-07-23T00:30:28;4.90;;;3.50;;
66603;SDS011;53460;39.612;8.822;2022-07-23T00:33:06;5.60;;;4.90;;
66603;SDS011;53460;39.612;8.822;2022-07-23T00:35:37;6.72;;;4.57;;
66603;SDS011;53460;39.612;8.822;2022-07-23T00:38:06;7.35;;;4.05;;
66603;SDS011;53460;39.612;8.822;2022-07-23T00:40:33;5.70;;;3.40;;
66603;SDS011;53460;39.612;8.822;2022-07-23T00:42:59;3.97;;;3.47;;
66603;SDS011;53460;39.612;8.822;2022-07-23T00:45:25;5.82;;;4.30;;
66603;SDS011;53460;39.612;8.822;2022-07-23T00:47:52;4.82;;;3.28;;
66603;SDS011;53460;39.612;8.822;2022-07-23T00:50:18;4.97;;;3.53;;
66603;SDS011;53460;39.612;8.822;2022-07-23T00:52:43;8.68;;;3.83;;
66603;SDS011;53460;39.612;8.822;2022-07-23T00:55:10;5.95;;;3.15;;
66603;SDS011;53460;39.612;8.822;2022-07-23T00:57:37;6.68;;;3.38;;
66603;SDS011;53460;39.612;8.822;2022-07-23T01:00:04;4.70;;;3.50;;
66603;SDS011;53460;39.612;8.822;2022-07-23T01:02:32;6.75;;;3.78;;
66603;SDS011;53460;39.612;8.822;2022-07-23T01:04:58;4.68;;;3.58;;
66603;SDS011;53460;39.612;8.822;2022-07-23T01:07:23;8.55;;;3.50;;
66603;SDS011;53460;39.612;8.822;2022-07-23T01:09:49;7.72;;;4.00;;
66603;SDS011;53460;39.612;8.822;2022-07-23T01:12:17;9.30;;;3.60;;
66603;SDS011;53460;39.612;8.822;2022-07-23T01:14:43;5.53;;;4.03;;
66603;SDS011;53460;39.612;8.822;2022-07-23T01:17:09;5.93;;;3.75;;
66603;SDS011;53460;39.612;8.822;2022-07-23T01:19:34;4.22;;;3.80;;
66603;SDS011;53460;39.612;8.822;2022-07-23T01:22:01;8.52;;;3.55;;
66603;SDS011;53460;39.612;8.822;2022-07-23T01:24:28;6.13;;;3.60;;
66603;SDS011;53460;39.612;8.822;2022-07-23T01:27:00;4.47;;;3.67;;
66603;SDS011;53460;39.612;8.822;2022-07-23T01:29:26;5.25;;;3.10;;
66603;SDS011;53460;39.612;8.822;2022-07-23T01:31:53;5.38;;;3.67;;
66603;SDS011;53460;39.612;8.822;2022-07-23T01:34:19;6.03;;;4.20;;
66603;SDS011;53460;39.612;8.822;2022-07-23T01:36:45;5.38;;;3.40;;
66603;SDS011;53460;39.612;8.822;2022-07-23T01:39:13;4.18;;;3.47;;
66603;SDS011;53460;39.612;8.822;2022-07-23T01:41:39;7.40;;;4.20;;
66603;SDS011;53460;39.612;8.822;2022-07-23T01:44:05;4.28;;;3.67;;
66603;SDS011;53460;39.612;8.822;2022-07-23T01:46:31;4.82;;;3.38;;
66603;SDS011;53460;39.612;8.822;2022-07-23T01:48:58;6.00;;;3.50;;
66603;SDS011;53460;39.612;8.822;2022-07-23T01:51:55;8.57;;;3.45;;
66603;SDS011;53460;39.612;8.822;2022-07-23T01:54:33;8.93;;;3.35;;
66603;SDS011;53460;39.612;8.822;2022-07-23T01:57:00;6.95;;;3.67;;
66603;SDS011;53460;39.612;8.822;2022-07-23T01:59:27;5.30;;;3.33;;
66603;SDS011;53460;39.612;8.822;2022-07-23T02:01:53;7.88;;;3.63;;
66603;SDS011;53460;39.612;8.822;2022-07-23T02:04:20;6.25;;;3.55;;
66603;SDS011;53460;39.612;8.822;2022-07-23T02:06:47;8.50;;;3.20;;
66603;SDS011;53460;39.612;8.822;2022-07-23T02:09:13;7.78;;;3.63;;
66603;SDS011;53460;39.612;8.822;2022-07-23T02:11:39;5.85;;;3.83;;
66603;SDS011;53460;39.612;8.822;2022-07-23T02:14:05;7.30;;;3.30;;
66603;SDS011;53460;39.612;8.822;2022-07-23T02:16:31;5.22;;;3.42;;
66603;SDS011;53460;39.612;8.822;2022-07-23T02:19:01;5.38;;;3.45;;
66603;SDS011;53460;39.612;8.822;2022-07-23T02:21:27;3.90;;;2.92;;
66603;SDS011;53460;39.612;8.822;2022-07-23T02:23:52;5.97;;;3.33;;
66603;SDS011;53460;39.612;8.822;2022-07-23T02:26:19;5.93;;;3.10;;
66603;SDS011;53460;39.612;8.822;2022-07-23T02:28:45;3.63;;;2.95;;
66603;SDS011;53460;39.612;8.822;2022-07-23T02:31:11;4.85;;;3.08;;
66603;SDS011;53460;39.612;8.822;2022-07-23T02:33:36;4.80;;;3.72;;
66603;SDS011;53460;39.612;8.822;2022-07-23T02:36:02;3.88;;;3.38;;
66603;SDS011;53460;39.612;8.822;2022-07-23T02:38:28;4.90;;;2.80;;
66603;SDS011;53460;39.612;8.822;2022-07-23T02:40:55;3.40;;;3.10;;
66603;SDS011;53460;39.612;8.822;2022-07-23T02:43:20;4.47;;;3.47;;
66603;SDS011;53460;39.612;8.822;2022-07-23T02:45:46;5.90;;;3.40;;
66603;SDS011;53460;39.612;8.822;2022-07-23T02:48:12;6.00;;;3.20;;
66603;SDS011;53460;39.612;8.822;2022-07-23T02:50:38;4.70;;;3.42;;
66603;SDS011;53460;39.612;8.822;2022-07-23T02:53:04;5.63;;;3.45;;
66603;SDS011;53460;39.612;8.822;2022-07-23T02:55:30;6.90;;;3.38;;
66603;SDS011;53460;39.612;8.822;2022-07-23T02:57:59;5.45;;;3.55;;
66603;SDS011;53460;39.612;8.822;2022-07-23T03:00:26;5.82;;;3.90;;
66603;SDS011;53460;39.612;8.822;2022-07-23T03:02:52;4.20;;;3.50;;
66603;SDS011;53460;39.612;8.822;2022-07-23T03:05:18;9.32;;;3.47;;
66603;SDS011;53460;39.612;8.822;2022-07-23T03:07:43;8.05;;;3.47;;
66603;SDS011;53460;39.612;8.822;2022-07-23T03:10:09;7.00;;;3.30;;
66603;SDS011;53460;39.612;8.822;2022-07-23T03:12:35;3.80;;;3.25;;
66603;SDS011;53460;39.612;8.822;2022-07-23T03:15:01;7.00;;;3.28;;
66603;SDS011;53460;39.612;8.822;2022-07-23T03:17:27;3.92;;;3.10;;
66603;SDS011;53460;39.612;8.822;2022-07-23T03:19:53;4.13;;;3.25;;
66603;SDS011;53460;39.612;8.822;2022-07-23T03:22:19;6.38;;;3.28;;
66603;SDS011;53460;39.612;8.822;2022-07-23T03:24:44;4.55;;;3.00;;
66603;SDS011;53460;39.612;8.822;2022-07-23T03:27:25;6.03;;;3.42;;
66603;SDS011;53460;39.612;8.822;2022-07-23T03:29:54;4.72;;;3.08;;
66603;SDS011;53460;39.612;8.822;2022-07-23T03:32:22;3.40;;;3.10;;
66603;SDS011;53460;39.612;8.822;2022-07-23T03:34:49;6.70;;;3.30;;
66603;SDS011;53460;39.612;8.822;2022-07-23T03:37:15;9.13;;;3.33;;
66603;SDS011;53460;39.612;8.822;2022-07-23T03:39:41;10.82;;;3.65;;
66603;SDS011;53460;39.612;8.822;2022-07-23T03:42:07;7.30;;;3.95;;
66603;SDS011;53460;39.612;8.822;2022-07-23T03:44:33;6.20;;;3.03;;
66603;SDS011;53460;39.612;8.822;2022-07-23T03:47:01;11.00;;;4.50;;
66603;SDS011;53460;39.612;8.822;2022-07-23T03:49:26;10.57;;;3.58;;
66603;SDS011;53460;39.612;8.822;2022-07-23T03:51:52;8.68;;;3.55;;
66603;SDS011;53460;39.612;8.822;2022-07-23T03:54:18;7.93;;;3.33;;
66603;SDS011;53460;39.612;8.822;2022-07-23T03:56:45;5.63;;;3.65;;
66603;SDS011;53460;39.612;8.822;2022-07-23T03:59:11;5.03;;;3.60;;
66603;SDS011;53460;39.612;8.822;2022-07-23T04:01:36;7.13;;;4.53;;
66603;SDS011;53460;39.612;8.822;2022-07-23T04:04:02;9.52;;;4.13;;
66603;SDS011;53460;39.612;8.822;2022-07-23T04:06:28;9.45;;;4.05;;
66603;SDS011;53460;39.612;8.822;2022-07-23T04:08:56;6.60;;;3.80;;
66603;SDS011;53460;39.612;8.822;2022-07-23T04:11:21;8.50;;;4.18;;
66603;SDS011;53460;39.612;8.822;2022-07-23T04:13:47;6.15;;;3.70;;
66603;SDS011;53460;39.612;8.822;2022-07-23T04:16:13;6.30;;;3.78;;
66603;SDS011;53460;39.612;8.822;2022-07-23T04:18:39;7.15;;;3.60;;
66603;SDS011;53460;39.612;8.822;2022-07-23T04:21:10;9.43;;;3.72;;
66603;SDS011;53460;39.612;8.822;2022-07-23T04:23:37;7.53;;;4.00;;
66603;SDS011;53460;39.612;8.822;2022-07-23T04:26:04;11.50;;;3.60;;
66603;SDS011;53460;39.612;8.822;2022-07-23T04:28:30;9.50;;;4.25;;
66603;SDS011;53460;39.612;8.822;2022-07-23T04:30:57;10.85;;;3.45;;
66603;SDS011;53460;39.612;8.822;2022-07-23T04:33:23;7.40;;;2.92;;
66603;SDS011;53460;39.612;8.822;2022-07-23T04:35:52;6.85;;;3.08;;
66603;SDS011;53460;39.612;8.822;2022-07-23T04:38:19;3.58;;;3.10;;
66603;SDS011;53460;39.612;8.822;2022-07-23T04:40:45;2.92;;;2.55;;
66603;SDS011;53460;39.612;8.822;2022-07-23T04:43:12;7.13;;;3.40;;
66603;SDS011;53460;39.612;8.822;2022-07-23T04:45:44;8.35;;;3.03;;
66603;SDS011;53460;39.612;8.822;2022-07-23T04:48:10;4.90;;;3.55;;
66603;SDS011;53460;39.612;8.822;2022-07-23T04:50:36;7.72;;;3.50;;
66603;SDS011;53460;39.612;8.822;2022-07-23T04:53:03;4.32;;;3.72;;
66603;SDS011;53460;39.612;8.822;2022-07-23T04:55:29;8.75;;;3.35;;
66603;SDS011;53460;39.612;8.822;2022-07-23T04:57:55;8.73;;;3.60;;
66603;SDS011;53460;39.612;8.822;2022-07-23T05:00:21;6.57;;;3.67;;
66603;SDS011;53460;39.612;8.822;2022-07-23T05:02:47;9.65;;;3.80;;
66603;SDS011;53460;39.612;8.822;2022-07-23T05:05:12;11.02;;;3.60;;
66603;SDS011;53460;39.612;8.822;2022-07-23T05:07:40;8.05;;;3.50;;
66603;SDS011;53460;39.612;8.822;2022-07-23T05:10:06;9.27;;;3.60;;
66603;SDS011;53460;39.612;8.822;2022-07-23T05:12:32;6.45;;;3.58;;
66603;SDS011;53460;39.612;8.822;2022-07-23T05:14:58;14.88;;;3.70;;
66603;SDS011;53460;39.612;8.822;2022-07-23T05:17:24;10.40;;;3.97;;
66603;SDS011;53460;39.612;8.822;2022-07-23T05:19:50;8.02;;;3.80;;
66603;SDS011;53460;39.612;8.822;2022-07-23T05:22:16;12.93;;;4.22;;
66603;SDS011;53460;39.612;8.822;2022-07-23T05:24:42;12.82;;;3.40;;
66603;SDS011;53460;39.612;8.822;2022-07-23T05:27:08;5.75;;;3.40;;
66603;SDS011;53460;39.612;8.822;2022-07-23T05:29:34;8.60;;;3.85;;
66603;SDS011;53460;39.612;8.822;2022-07-23T05:32:00;6.38;;;3.53;;
66603;SDS011;53460;39.612;8.822;2022-07-23T05:34:27;6.47;;;3.60;;
66603;SDS011;53460;39.612;8.822;2022-07-23T05:36:53;7.72;;;3.60;;
66603;SDS011;53460;39.612;8.822;2022-07-23T05:39:19;5.45;;;3.60;;
66603;SDS011;53460;39.612;8.822;2022-07-23T05:41:46;12.13;;;3.80;;
66603;SDS011;53460;39.612;8.822;2022-07-23T05:44:12;16.83;;;4.35;;
66603;SDS011;53460;39.612;8.822;2022-07-23T05:46:42;19.35;;;4.15;;
66603;SDS011;53460;39.612;8.822;2022-07-23T05:49:11;15.27;;;4.45;;
66603;SDS011;53460;39.612;8.822;2022-07-23T05:51:57;11.38;;;3.90;;
66603;SDS011;53460;39.612;8.822;2022-07-23T05:54:38;14.98;;;4.15;;
66603;SDS011;53460;39.612;8.822;2022-07-23T05:57:03;14.23;;;3.90;;
66603;SDS011;53460;39.612;8.822;2022-07-23T05:59:29;18.65;;;4.43;;
66603;SDS011;53460;39.612;8.822;2022-07-23T06:01:55;6.75;;;3.42;;
66603;SDS011;53460;39.612;8.822;2022-07-23T06:04:21;12.77;;;4.05;;
66603;SDS011;53460;39.612;8.822;2022-07-23T06:07:03;10.95;;;3.38;;
66603;SDS011;53460;39.612;8.822;2022-07-23T06:09:29;6.55;;;3.92;;
66603;SDS011;53460;39.612;8.822;2022-07-23T06:11:55;11.57;;;4.35;;
66603;SDS011;53460;39.612;8.822;2022-07-23T06:14:21;7.93;;;4.15;;
66603;SDS011;53460;39.612;8.822;2022-07-23T06:16:51;13.73;;;3.75;;
66603;SDS011;53460;39.612;8.822;2022-07-23T06:19:17;11.45;;;3.60;;
66603;SDS011;53460;39.612;8.822;2022-07-23T06:21:43;8.50;;;3.60;;
66603;SDS011;53460;39.612;8.822;2022-07-23T06:24:10;25.10;;;3.50;;
66603;SDS011;53460;39.612;8.822;2022-07-23T06:26:35;5.30;;;3.38;;
66603;SDS011;53460;39.612;8.822;2022-07-23T06:29:01;7.68;;;3.67;;
66603;SDS011;53460;39.612;8.822;2022-07-23T06:31:27;6.85;;;3.50;;
66603;SDS011;53460;39.612;8.822;2022-07-23T06:33:52;5.95;;;3.05;;
66603;SDS011;53460;39.612;8.822;2022-07-23T06:36:18;11.02;;;3.63;;
66603;SDS011;53460;39.612;8.822;2022-07-23T06:38:44;5.22;;;2.97;;
66603;SDS011;53460;39.612;8.822;2022-07-23T06:41:09;7.05;;;3.08;;
66603;SDS011;53460;39.612;8.822;2022-07-23T06:43:35;8.07;;;3.58;;
66603;SDS011;53460;39.612;8.822;2022-07-23T06:46:01;6.85;;;3.10;;
66603;SDS011;53460;39.612;8.822;2022-07-23T06:48:27;4.97;;;3.13;;
66603;SDS011;53460;39.612;8.822;2022-07-23T06:50:54;7.60;;;3.53;;
66603;SDS011;53460;39.612;8.822;2022-07-23T06:53:23;9.25;;;3.50;;
66603;SDS011;53460;39.612;8.822;2022-07-23T06:55:49;6.70;;;3.08;;
66603;SDS011;53460;39.612;8.822;2022-07-23T06:58:14;7.40;;;3.10;;
66603;SDS011;53460;39.612;8.822;2022-07-23T07:00:40;7.65;;;3.10;;
66603;SDS011;53460;39.612;8.822;2022-07-23T07:03:06;10.23;;;3.30;;
66603;SDS011;53460;39.612;8.822;2022-07-23T07:05:31;6.15;;;2.88;;
66603;SDS011;53460;39.612;8.822;2022-07-23T07:07:58;5.03;;;2.58;;
66603;SDS011;53460;39.612;8.822;2022-07-23T07:10:23;8.55;;;3.08;;
66603;SDS011;53460;39.612;8.822;2022-07-23T07:12:49;6.57;;;2.67;;
66603;SDS011;53460;39.612;8.822;2022-07-23T07:15:15;7.07;;;3.05;;
66603;SDS011;53460;39.612;8.822;2022-07-23T07:17:40;4.00;;;2.90;;
66603;SDS011;53460;39.612;8.822;2022-07-23T07:20:07;6.55;;;3.33;;
66603;SDS011;53460;39.612;8.822;2022-07-23T07:22:33;8.57;;;3.83;;
66603;SDS011;53460;39.612;8.822;2022-07-23T07:24:59;9.23;;;3.55;;
66603;SDS011;53460;39.612;8.822;2022-07-23T07:27:25;5.05;;;2.70;;
66603;SDS011;53460;39.612;8.822;2022-07-23T07:29:50;5.68;;;3.10;;
66603;SDS011;53460;39.612;8.822;2022-07-23T07:32:16;13.85;;;2.95;;
66603;SDS011;53460;39.612;8.822;2022-07-23T07:34:42;7.65;;;3.05;;
66603;SDS011;53460;39.612;8.822;2022-07-23T07:37:07;5.38;;;2.90;;
66603;SDS011;53460;39.612;8.822;2022-07-23T07:39:33;5.63;;;2.90;;
66603;SDS011;53460;39.612;8.822;2022-07-23T07:41:58;8.07;;;3.17;;
66603;SDS011;53460;39.612;8.822;2022-07-23T07:44:24;4.35;;;3.08;;
66603;SDS011;53460;39.612;8.822;2022-07-23T07:46:50;9.63;;;3.10;;
66603;SDS011;53460;39.612;8.822;2022-07-23T07:49:15;20.73;;;3.50;;
66603;SDS011;53460;39.612;8.822;2022-07-23T07:51:44;9.95;;;3.60;;
66603;SDS011;53460;39.612;8.822;2022-07-23T07:54:11;17.25;;;4.13;;
66603;SDS011;53460;39.612;8.822;2022-07-23T07:56:37;8.65;;;3.78;;
66603;SDS011;53460;39.612;8.822;2022-07-23T07:59:02;10.25;;;3.33;;
66603;SDS011;53460;39.612;8.822;2022-07-23T08:01:28;11.50;;;3.40;;
66603;SDS011;53460;39.612;8.822;2022-07-23T08:03:54;9.70;;;3.63;;
66603;SDS011;53460;39.612;8.822;2022-07-23T08:06:19;6.20;;;2.63;;
66603;SDS011;53460;39.612;8.822;2022-07-23T08:08:45;5.82;;;2.95;;
66603;SDS011;53460;39.612;8.822;2022-07-23T08:11:11;5.93;;;2.97;;
66603;SDS011;53460;39.612;8.822;2022-07-23T08:13:36;6.25;;;2.97;;
66603;SDS011;53460;39.612;8.822;2022-07-23T08:16:02;6.75;;;3.20;;
66603;SDS011;53460;39.612;8.822;2022-07-23T08:18:28;4.70;;;3.00;;
66603;SDS011;53460;39.612;8.822;2022-07-23T08:20:54;5.43;;;3.25;;
66603;SDS011;53460;39.612;8.822;2022-07-23T08:23:20;8.98;;;3.28;;
66603;SDS011;53460;39.612;8.822;2022-07-23T08:25:46;8.68;;;2.88;;
66603;SDS011;53460;39.612;8.822;2022-07-23T08:28:12;7.70;;;3.00;;
66603;SDS011;53460;39.612;8.822;2022-07-23T08:30:40;5.72;;;3.50;;
66603;SDS011;53460;39.612;8.822;2022-07-23T08:33:08;5.72;;;3.45;;
66603;SDS011;53460;39.612;8.822;2022-07-23T08:38:06;3.80;;;3.28;;
66603;SDS011;53460;39.612;8.822;2022-07-23T08:40:38;6.53;;;3.20;;
66603;SDS011;53460;39.612;8.822;2022-07-23T08:43:08;5.50;;;3.17;;
66603;SDS011;53460;39.612;8.822;2022-07-23T08:45:40;7.18;;;2.75;;
66603;SDS011;53460;39.612;8.822;2022-07-23T08:48:08;3.90;;;2.90;;
66603;SDS011;53460;39.612;8.822;2022-07-23T08:50:37;12.35;;;5.90;;
66603;SDS011;53460;39.612;8.822;2022-07-23T08:53:07;7.85;;;3.65;;
66603;SDS011;53460;39.612;8.822;2022-07-23T08:55:34;5.10;;;2.97;;
66603;SDS011;53460;39.612;8.822;2022-07-23T08:58:00;3.78;;;3.08;;
66603;SDS011;53460;39.612;8.822;2022-07-23T09:00:26;5.95;;;3.10;;
66603;SDS011;53460;39.612;8.822;2022-07-23T09:02:52;3.92;;;2.80;;
66603;SDS011;53460;39.612;8.822;2022-07-23T09:05:18;5.53;;;3.13;;
66603;SDS011;53460;39.612;8.822;2022-07-23T09:10:34;4.45;;;2.97;;
66603;SDS011;53460;39.612;8.822;2022-07-23T09:16:19;5.40;;;3.03;;
66603;SDS011;53460;39.612;8.822;2022-07-23T09:18:54;6.00;;;2.88;;
66603;SDS011;53460;39.612;8.822;2022-07-23T09:21:27;5.35;;;3.10;;
66603;SDS011;53460;39.612;8.822;2022-07-23T09:23:57;4.57;;;3.35;;
66603;SDS011;53460;39.612;8.822;2022-07-23T09:26:27;4.00;;;3.03;;
66603;SDS011;53460;39.612;8.822;2022-07-23T09:36:52;4.00;;;2.78;;
66603;SDS011;53460;39.612;8.822;2022-07-23T09:39:34;4.05;;;2.75;;
66603;SDS011;53460;39.612;8.822;2022-07-23T09:42:19;4.25;;;2.90;;
66603;SDS011;53460;39.612;8.822;2022-07-23T09:44:50;4.40;;;2.90;;
66603;SDS011;53460;39.612;8.822;2022-07-23T09:47:17;4.77;;;3.30;;
66603;SDS011;53460;39.612;8.822;2022-07-23T09:50:05;6.68;;;3.08;;
66603;SDS011;53460;39.612;8.822;2022-07-23T09:52:32;5.50;;;2.85;;
66603;SDS011;53460;39.612;8.822;2022-07-23T09:55:00;4.93;;;2.75;;
66603;SDS011;53460;39.612;8.822;2022-07-23T09:57:27;5.75;;;2.88;;
66603;SDS011;53460;39.612;8.822;2022-07-23T09:59:53;4.68;;;3.03;;
66603;SDS011;53460;39.612;8.822;2022-07-23T10:02:30;4.07;;;2.88;;
66603;SDS011;53460;39.612;8.822;2022-07-23T10:05:17;3.67;;;2.72;;
66603;SDS011;53460;39.612;8.822;2022-07-23T10:08:04;5.65;;;2.65;;
66603;SDS011;53460;39.612;8.822;2022-07-23T10:11:03;7.30;;;3.15;;
66603;SDS011;53460;39.612;8.822;2022-07-23T10:13:42;4.40;;;4.00;;
66603;SDS011;53460;39.612;8.822;2022-07-23T10:16:16;6.22;;;2.55;;
66603;SDS011;53460;39.612;8.822;2022-07-23T10:18:42;4.05;;;2.80;;
66603;SDS011;53460;39.612;8.822;2022-07-23T10:21:07;5.00;;;2.70;;
66603;SDS011;53460;39.612;8.822;2022-07-23T10:23:45;7.45;;;2.72;;
66603;SDS011;53460;39.612;8.822;2022-07-23T10:26:31;4.20;;;2.50;;
66603;SDS011;53460;39.612;8.822;2022-07-23T10:32:00;6.15;;;2.53;;
66603;SDS011;53460;39.612;8.822;2022-07-23T10:34:40;5.88;;;2.53;;
66603;SDS011;53460;39.612;8.822;2022-07-23T10:37:20;5.97;;;3.10;;
66603;SDS011;53460;39.612;8.822;2022-07-23T10:42:36;4.00;;;2.65;;
66603;SDS011;53460;39.612;8.822;2022-07-23T10:45:02;2.78;;;2.35;;
66603;SDS011;53460;39.612;8.822;2022-07-23T10:47:56;5.10;;;2.63;;
66603;SDS011;53460;39.612;8.822;2022-07-23T10:50:42;5.30;;;2.40;;
66603;SDS011;53460;39.612;8.822;2022-07-23T10:53:10;6.95;;;2.50;;
66603;SDS011;53460;39.612;8.822;2022-07-23T10:55:40;6.85;;;2.20;;
66603;SDS011;53460;39.612;8.822;2022-07-23T10:58:22;3.80;;;2.25;;
66603;SDS011;53460;39.612;8.822;2022-07-23T11:03:57;5.00;;;2.40;;
66603;SDS011;53460;39.612;8.822;2022-07-23T11:06:24;4.28;;;2.38;;
66603;SDS011;53460;39.612;8.822;2022-07-23T11:09:28;3.08;;;2.28;;
66603;SDS011;53460;39.612;8.822;2022-07-23T11:12:57;3.00;;;2.30;;
66603;SDS011;53460;39.612;8.822;2022-07-23T11:14:58;2.33;;;2.13;;
66603;SDS011;53460;39.612;8.822;2022-07-23T11:17:26;3.47;;;2.10;;
66603;SDS011;53460;39.612;8.822;2022-07-23T11:25:08;2.80;;;2.20;;
66603;SDS011;53460;39.612;8.822;2022-07-23T11:27:39;4.43;;;2.00;;
66603;SDS011;53460;39.612;8.822;2022-07-23T11:30:09;3.22;;;1.77;;
66603;SDS011;53460;39.612;8.822;2022-07-23T11:35:34;3.58;;;2.20;;
66603;SDS011;53460;39.612;8.822;2022-07-23T11:40:37;4.75;;;2.08;;
66603;SDS011;53460;39.612;8.822;2022-07-23T11:43:06;6.97;;;2.20;;
66603;SDS011;53460;39.612;8.822;2022-07-23T11:48:08;2.35;;;1.90;;
66603;SDS011;53460;39.612;8.822;2022-07-23T11:50:35;1.80;;;1.65;;
66603;SDS011;53460;39.612;8.822;2022-07-23T11:53:02;10.65;;;2.05;;
66603;SDS011;53460;39.612;8.822;2022-07-23T11:55:28;4.47;;;1.95;;
66603;SDS011;53460;39.612;8.822;2022-07-23T11:57:54;7.53;;;2.08;;
66603;SDS011;53460;39.612;8.822;2022-07-23T12:00:21;3.10;;;1.80;;
66603;SDS011;53460;39.612;8.822;2022-07-23T12:02:52;1.90;;;1.67;;
66603;SDS011;53460;39.612;8.822;2022-07-23T12:05:21;2.78;;;1.73;;
66603;SDS011;53460;39.612;8.822;2022-07-23T12:07:49;6.60;;;2.03;;
66603;SDS011;53460;39.612;8.822;2022-07-23T12:10:23;4.45;;;1.85;;
66603;SDS011;53460;39.612;8.822;2022-07-23T12:12:53;2.53;;;2.10;;
66603;SDS011;53460;39.612;8.822;2022-07-23T12:15:30;5.70;;;2.05;;
66603;SDS011;53460;39.612;8.822;2022-07-23T12:18:03;2.42;;;1.77;;
66603;SDS011;53460;39.612;8.822;2022-07-23T12:20:35;4.50;;;2.00;;
66603;SDS011;53460;39.612;8.822;2022-07-23T12:23:03;3.00;;;2.13;;
66603;SDS011;53460;39.612;8.822;2022-07-23T12:25:35;1.95;;;1.52;;
66603;SDS011;53460;39.612;8.822;2022-07-23T12:30:29;4.07;;;1.98;;
66603;SDS011;53460;39.612;8.822;2022-07-23T12:32:57;3.15;;;1.73;;
66603;SDS011;53460;39.612;8.822;2022-07-23T12:35:29;5.38;;;1.70;;
66603;SDS011;53460;39.612;8.822;2022-07-23T12:38:03;1.85;;;1.60;;
66603;SDS011;53460;39.612;8.822;2022-07-23T12:43:05;3.30;;;1.92;;
66603;SDS011;53460;39.612;8.822;2022-07-23T12:48:19;3.35;;;2.03;;
66603;SDS011;53460;39.612;8.822;2022-07-23T12:53:21;2.88;;;1.90;;
66603;SDS011;53460;39.612;8.822;2022-07-23T12:55:56;4.85;;;2.08;;
66603;SDS011;53460;39.612;8.822;2022-07-23T12:58:40;3.88;;;1.80;;
66603;SDS011;53460;39.612;8.822;2022-07-23T13:01:10;5.78;;;2.50;;
66603;SDS011;53460;39.612;8.822;2022-07-23T13:03:57;2.35;;;1.70;;
66603;SDS011;53460;39.612;8.822;2022-07-23T13:06:30;5.53;;;2.22;;
66603;SDS011;53460;39.612;8.822;2022-07-23T13:08:58;3.38;;;2.05;;
66603;SDS011;53460;39.612;8.822;2022-07-23T13:11:24;4.40;;;1.92;;
66603;SDS011;53460;39.612;8.822;2022-07-23T13:13:50;1.98;;;1.83;;
66603;SDS011;53460;39.612;8.822;2022-07-23T13:16:15;5.45;;;2.03;;
66603;SDS011;53460;39.612;8.822;2022-07-23T13:18:41;3.30;;;1.88;;
66603;SDS011;53460;39.612;8.822;2022-07-23T13:21:07;6.53;;;2.15;;
66603;SDS011;53460;39.612;8.822;2022-07-23T13:23:34;2.33;;;2.05;;
66603;SDS011;53460;39.612;8.822;2022-07-23T13:26:00;3.33;;;1.70;;
66603;SDS011;53460;39.612;8.822;2022-07-23T13:28:26;2.17;;;1.85;;
66603;SDS011;53460;39.612;8.822;2022-07-23T13:30:52;2.50;;;1.73;;
66603;SDS011;53460;39.612;8.822;2022-07-23T13:33:21;2.42;;;1.80;;
66603;SDS011;53460;39.612;8.822;2022-07-23T13:35:49;3.42;;;2.13;;
66603;SDS011;53460;39.612;8.822;2022-07-23T13:38:16;3.20;;;2.00;;
66603;SDS011;53460;39.612;8.822;2022-07-23T13:40:43;4.60;;;1.70;;
66603;SDS011;53460;39.612;8.822;2022-07-23T13:43:11;4.05;;;1.80;;
66603;SDS011;53460;39.612;8.822;2022-07-23T13:45:38;3.33;;;2.13;;
66603;SDS011;53460;39.612;8.822;2022-07-23T13:48:04;5.07;;;2.13;;
66603;SDS011;53460;39.612;8.822;2022-07-23T13:50:31;2.67;;;2.00;;
66603;SDS011;53460;39.612;8.822;2022-07-23T13:53:00;5.13;;;2.35;;
66603;SDS011;53460;39.612;8.822;2022-07-23T13:55:26;3.15;;;1.55;;
66603;SDS011;53460;39.612;8.822;2022-07-23T13:57:52;4.45;;;1.90;;
66603;SDS011;53460;39.612;8.822;2022-07-23T14:00:18;2.00;;;1.70;;
66603;SDS011;53460;39.612;8.822;2022-07-23T14:02:44;3.13;;;1.90;;
66603;SDS011;53460;39.612;8.822;2022-07-23T14:05:10;3.13;;;1.98;;
66603;SDS011;53460;39.612;8.822;2022-07-23T14:07:36;2.85;;;1.80;;
66603;SDS011;53460;39.612;8.822;2022-07-23T14:10:03;3.05;;;1.80;;
66603;SDS011;53460;39.612;8.822;2022-07-23T14:12:30;3.60;;;1.85;;
66603;SDS011;53460;39.612;8.822;2022-07-23T14:14:56;1.83;;;1.42;;
66603;SDS011;53460;39.612;8.822;2022-07-23T14:17:22;4.22;;;2.03;;
66603;SDS011;53460;39.612;8.822;2022-07-23T14:19:48;3.83;;;2.03;;
66603;SDS011;53460;39.612;8.822;2022-07-23T14:22:14;2.72;;;1.65;;
66603;SDS011;53460;39.612;8.822;2022-07-23T14:24:39;4.28;;;1.95;;
66603;SDS011;53460;39.612;8.822;2022-07-23T14:27:05;4.10;;;2.20;;
66603;SDS011;53460;39.612;8.822;2022-07-23T14:29:31;3.28;;;2.35;;
66603;SDS011;53460;39.612;8.822;2022-07-23T14:31:57;4.50;;;2.05;;
66603;SDS011;53460;39.612;8.822;2022-07-23T14:34:23;7.20;;;4.00;;
66603;SDS011;53460;39.612;8.822;2022-07-23T14:36:50;3.90;;;3.10;;
66603;SDS011;53460;39.612;8.822;2022-07-23T14:39:16;3.30;;;1.60;;
66603;SDS011;53460;39.612;8.822;2022-07-23T14:41:41;14.98;;;8.75;;
66603;SDS011;53460;39.612;8.822;2022-07-23T14:44:07;6.47;;;3.63;;
66603;SDS011;53460;39.612;8.822;2022-07-23T14:46:33;2.92;;;1.75;;
66603;SDS011;53460;39.612;8.822;2022-07-23T14:48:58;2.90;;;1.88;;
66603;SDS011;53460;39.612;8.822;2022-07-23T14:51:24;7.35;;;1.80;;
66603;SDS011;53460;39.612;8.822;2022-07-23T14:53:50;4.07;;;1.98;;
66603;SDS011;53460;39.612;8.822;2022-07-23T14:56:15;3.35;;;1.60;;
66603;SDS011;53460;39.612;8.822;2022-07-23T14:58:41;3.30;;;1.77;;
66603;SDS011;53460;39.612;8.822;2022-07-23T15:01:07;4.80;;;1.90;;
66603;SDS011;53460;39.612;8.822;2022-07-23T15:03:33;2.67;;;1.90;;
66603;SDS011;53460;39.612;8.822;2022-07-23T15:05:59;2.25;;;1.63;;
66603;SDS011;53460;39.612;8.822;2022-07-23T15:08:25;2.78;;;1.50;;
66603;SDS011;53460;39.612;8.822;2022-07-23T15:10:51;3.10;;;1.60;;
66603;SDS011;53460;39.612;8.822;2022-07-23T15:13:17;3.00;;;2.10;;
66603;SDS011;53460;39.612;8.822;2022-07-23T15:15:43;3.15;;;1.88;;
66603;SDS011;53460;39.612;8.822;2022-07-23T15:18:09;3.65;;;2.00;;
66603;SDS011;53460;39.612;8.822;2022-07-23T15:20:35;2.03;;;1.75;;
66603;SDS011;53460;39.612;8.822;2022-07-23T15:23:02;3.83;;;1.80;;
66603;SDS011;53460;39.612;8.822;2022-07-23T15:25:28;3.28;;;2.00;;
66603;SDS011;53460;39.612;8.822;2022-07-23T15:27:54;7.38;;;2.00;;
66603;SDS011;53460;39.612;8.822;2022-07-23T15:30:20;3.70;;;1.60;;
66603;SDS011;53460;39.612;8.822;2022-07-23T15:32:46;4.57;;;1.60;;
66603;SDS011;53460;39.612;8.822;2022-07-23T15:35:12;2.85;;;2.00;;
66603;SDS011;53460;39.612;8.822;2022-07-23T15:37:37;5.63;;;1.95;;
66603;SDS011;53460;39.612;8.822;2022-07-23T15:40:03;3.05;;;2.08;;